»·PEaware :: DABXX EDDM-EDDH

DABXX :: EDDM-EDDH

FLIGHT INFORMATION

Flight Status: Arrived
Operator: Unknown
More flights by this operator :: More flights under this callsign
Pilot: Kenny J. (11300)
Aircraft: BOEING 737-300
(B733)
More flights by this aircraft type
Origin: EDDM Munich
Germany
Destination: EDDH Hamburg
Germany
More flights between these airports :: More routes between these airports
Route:
File this flight plan on PilotEdge
Remarks:
Altitude:
(Current/Filed)
21,000ft
Speed:
(Current/Filed)
445kts
Departed: 12-May-16 02:19 PM
Arrived: 12-May-16 04:13 PM
Distance/Time
Traveled:
324nm/1:54
Distance/Time
To Go:
Arrived

Flight Plot

Page will automatically refresh every two minutes.


Map Options




Map Legend


Flown Route
Filed Route
Departure Airport
Arrival Airport
Navaid (VOR, NDB)
Fix

Horizontal Profiles

Position Reports

Time Latitude Longitude Heading Altitude Ground
Speed
12-May-16 14:11 48.356173 11.782597 83 1470ft 0kts
12-May-16 14:12 48.356173 11.782597 83 1470ft 0kts
12-May-16 14:13 48.356173 11.782597 83 1470ft 0kts
12-May-16 14:14 48.356166 11.782514 83 1470ft 0kts
12-May-16 14:15 48.356233 11.781748 147 1470ft 0kts
12-May-16 14:16 48.356429 11.781662 173 1470ft 0kts
12-May-16 14:17 48.348696 11.780419 262 1477ft 30kts
12-May-16 14:18 48.343436 11.769454 293 1480ft 45kts
12-May-16 14:19 48.343427 11.751555 262 1480ft 0kts
12-May-16 14:20 48.342710 11.750977 173 1480ft 4kts
12-May-16 14:21 48.340886 11.753742 83 1480ft 0kts
12-May-16 14:22 48.340886 11.753742 83 1480ft 0kts
12-May-16 14:23 48.343595 11.754996 131 1480ft 33kts
12-May-16 14:24 48.344824 11.769917 82 1480ft 52kts
12-May-16 14:25 48.346855 11.796398 77 1474ft 70kts
12-May-16 14:26 48.346314 11.805529 215 1474ft 18kts
12-May-16 14:27 48.344554 11.801322 263 1477ft 0kts
12-May-16 14:28 48.344554 11.801320 263 1477ft 1kts
12-May-16 14:29 48.341081 11.752494 264 3199ft 166kts
12-May-16 14:30 48.336957 11.679829 278 5861ft 220kts
12-May-16 14:31 48.376183 11.643789 351 8450ft 247kts
12-May-16 14:32 48.452996 11.626349 351 11719ft 295kts
12-May-16 14:33 48.502095 11.639438 43 13990ft 306kts
12-May-16 14:34 48.560991 11.713758 6 16780ft 331kts
12-May-16 14:35 48.633610 11.705332 355 18466ft 365kts
12-May-16 14:36 48.714831 11.678468 341 20874ft 377kts
12-May-16 14:37 48.800659 11.634106 341 21401ft 367kts
12-May-16 14:38 48.884855 11.590450 341 21230ft 360kts
12-May-16 14:39 48.959850 11.551590 341 21249ft 362kts
12-May-16 14:40 49.032810 11.513686 341 21245ft 362kts
12-May-16 14:41 49.097669 11.479892 341 21193ft 362kts
12-May-16 14:42 49.156139 11.449670 342 21138ft 361kts
12-May-16 14:43 49.211523 11.421793 341 21089ft 361kts
12-May-16 14:44 49.272194 11.405672 0 20852ft 362kts
12-May-16 14:45 49.352384 11.406294 0 20805ft 362kts
12-May-16 14:46 49.423451 11.406478 0 20814ft 362kts
12-May-16 14:47 49.496303 11.406608 0 20813ft 362kts
12-May-16 14:48 49.570670 11.406697 359 20816ft 362kts
12-May-16 14:49 49.648207 11.403612 347 20802ft 361kts
12-May-16 14:50 49.701785 11.334847 311 20820ft 362kts
12-May-16 14:51 49.748674 11.257440 313 20807ft 361kts
12-May-16 14:52 49.791910 11.187773 313 20809ft 361kts
12-May-16 14:53 49.836026 11.116721 313 20807ft 361kts
12-May-16 14:54 49.879623 11.046449 313 20808ft 361kts
12-May-16 14:55 49.935673 10.955483 313 20807ft 360kts
12-May-16 14:56 49.999071 10.852551 313 20808ft 361kts
12-May-16 14:57 50.061318 10.750942 313 22016ft 385kts
12-May-16 14:58 50.121532 10.654214 314 24419ft 385kts
12-May-16 14:59 50.188783 10.544283 313 24858ft 380kts
12-May-16 15:00 50.267819 10.466080 351 24847ft 377kts
12-May-16 15:01 50.357239 10.442559 350 24871ft 378kts
12-May-16 15:02 50.438331 10.418918 349 24889ft 378kts
12-May-16 15:03 50.516401 10.395907 349 24889ft 378kts
12-May-16 15:04 50.588673 10.349614 325 24892ft 378kts
12-May-16 15:05 50.652054 10.282663 326 24890ft 377kts
12-May-16 15:06 50.718790 10.212112 325 24889ft 377kts
12-May-16 15:07 50.780031 10.147150 326 24889ft 377kts
12-May-16 15:08 50.837766 10.085727 326 24889ft 376kts
12-May-16 15:09 50.898709 10.020639 325 24889ft 376kts
12-May-16 15:10 50.958410 9.956661 326 24888ft 376kts
12-May-16 15:11 51.025572 9.885932 326 24889ft 375kts
12-May-16 15:12 51.093889 9.812387 325 24889ft 375kts
12-May-16 15:13 51.146755 9.755157 325 24889ft 375kts
12-May-16 15:14 51.208590 9.694195 345 24884ft 374kts
12-May-16 15:15 51.279999 9.702684 8 24895ft 376kts
12-May-16 15:16 51.352680 9.718169 7 24888ft 375kts
12-May-16 15:17 51.412494 9.729647 6 24889ft 375kts
12-May-16 15:18 51.505841 9.746163 6 24889ft 375kts
12-May-16 15:19 51.576638 9.758588 6 24895ft 375kts
12-May-16 15:20 51.661735 9.773565 6 24917ft 376kts
12-May-16 15:21 51.745933 9.788438 6 24934ft 377kts
12-May-16 15:22 51.835763 9.804367 6 24941ft 377kts
12-May-16 15:23 51.917867 9.819853 7 24945ft 376kts
12-May-16 15:24 52.001745 9.836231 6 24942ft 376kts
12-May-16 15:25 52.088685 9.853030 6 24943ft 376kts
12-May-16 15:26 52.169408 9.868672 6 24943ft 376kts
12-May-16 15:27 52.251721 9.884679 6 24943ft 376kts
12-May-16 15:28 52.326410 9.900038 7 24943ft 376kts
12-May-16 15:29 52.413860 9.918971 7 24999ft 392kts
12-May-16 15:30 52.494562 9.936622 7 24897ft 370kts
12-May-16 15:31 52.578066 9.955054 7 24955ft 376kts
12-May-16 15:32 52.666899 9.974624 7 24941ft 375kts
12-May-16 15:33 52.759471 9.995118 7 24982ft 372kts
12-May-16 15:34 52.847744 10.014702 7 24952ft 375kts
12-May-16 15:35 52.928966 10.032969 8 24970ft 373kts
12-May-16 15:36 53.008576 10.051832 7 24969ft 373kts
12-May-16 15:37 53.094896 10.071327 7 24970ft 373kts
12-May-16 15:38 53.180485 10.090631 7 24068ft 355kts
12-May-16 15:39 53.263017 10.109310 7 22589ft 335kts
12-May-16 15:40 53.346983 10.128390 7 20870ft 326kts
12-May-16 15:41 53.429355 10.145704 6 19191ft 318kts
12-May-16 15:42 53.508197 10.164635 8 17518ft 308kts
12-May-16 15:43 53.582494 10.182990 7 15454ft 300kts
12-May-16 15:44 53.658380 10.201001 7 13393ft 291kts
12-May-16 15:45 53.731847 10.220201 9 11440ft 284kts
12-May-16 15:46 53.790775 10.278882 85 9914ft 276kts
12-May-16 15:47 53.739160 10.347678 159 8331ft 272kts
12-May-16 15:48 53.675129 10.407655 144 6900ft 266kts
12-May-16 15:49 53.614437 10.461265 182 5869ft 262kts
12-May-16 15:50 53.571125 10.385502 265 4852ft 244kts
12-May-16 15:51 53.549090 10.299607 240 3835ft 242kts
12-May-16 15:52 53.495035 10.269739 153 2685ft 235kts
12-May-16 15:53 53.438452 10.315434 151 2510ft 234kts
12-May-16 15:54 53.382744 10.362135 151 2518ft 234kts
12-May-16 15:55 53.326168 10.409901 150 2507ft 234kts
12-May-16 15:56 53.270661 10.456734 150 2498ft 234kts
12-May-16 15:57 53.217844 10.433515 242 2525ft 241kts
12-May-16 15:58 53.226643 10.342812 333 2499ft 227kts
12-May-16 15:59 53.281307 10.295298 334 2494ft 227kts
12-May-16 16:00 53.335205 10.249205 334 2510ft 226kts
12-May-16 16:01 53.387398 10.204028 334 2575ft 205kts
12-May-16 16:02 53.434868 10.163473 334 2643ft 174kts
12-May-16 16:03 53.473289 10.130652 335 2566ft 154kts
12-May-16 16:04 53.489866 10.116439 335 2334ft 127kts
12-May-16 16:05 53.516256 10.093879 336 1614ft 118kts
12-May-16 16:06 53.541307 10.072532 336 1525ft 118kts
12-May-16 16:07 53.565553 10.051708 336 1011ft 117kts
12-May-16 16:08 53.589995 10.030693 336 444ft 115kts
12-May-16 16:09 53.614173 10.009881 336 202ft 113kts
12-May-16 16:10 53.637747 9.989252 311 37ft 57kts
12-May-16 16:11 53.644797 9.983779 349 47ft 43kts
12-May-16 16:12 53.647062 9.984914 136 47ft 1kts
12-May-16 16:13 53.642803 9.988574 147 43ft 43kts
12-May-16 16:14 53.636569 9.996110 126 37ft 33kts
12-May-16 16:15 53.633135 10.002294 178 40ft 29kts
12-May-16 16:16 53.631649 10.002362 178 38ft 8kts
12-May-16 16:17 53.630648 10.002410 178 38ft 16kts
12-May-16 16:18 53.628662 10.001801 207 40ft 19kts

Navigation Log

Ident Type
Flight plan parsing failed, navigation log unavailable